AirNav   ATP
 
 408 users online  

PA62 Temple University Heliport
Philadelphia, Pennsylvania, USA

GOING TO PHILADELPHIA?


FAA INFORMATION EFFECTIVE 08 NOVEMBER 2018

Location

FAA Identifier: PA62
Lat/Long: 40-00-20.5400N / 075-09-00.5200W
40-00.342333N / 075-09.008667W
40.0057056 / -75.1501444
(estimated)
Elevation: 183 ft. / 56 m (estimated)
Variation: 11W (1985)
Time zone: UTC -5 (UTC -4 during Daylight Saving Time)
Zip code: 19140

Heliport Operations

Heliport use: Private use, MEDICAL USE.
Activation date: 11/1990
Control tower: no
ARTCC: NEW YORK CENTER
FSS: WILLIAMSPORT FLIGHT SERVICE STATION
Attendance: CONTINUOUS
Wind indicator: lighted
Segmented circle: no
Lights: SS-SR

Heliport Communications

WX ASOS at PNE (8 nm NE): PHONE 215-677-0146
WX ASOS at PHL (9 nm SW): PHONE 215-492-9617
WX AWOS-3 at LOM (10 nm NW): 118.925 (215-646-1068)
WX ASOS at VAY (14 nm E): 119.325 (609-267-1176)
WX ASOS at DYL (20 nm N): 118.875 (215-345-0392)
WX AWOS-3T at OQN (20 nm W): 121.4 ((610) 692-6190)

Nearby radio navigation aids

VOR radial/distance  VOR name  Freq  Var
ARDr227/18.6YARDLEY VOR/DME108.2010W
PTWr134/22.9POTTSTOWN VORTAC116.5009W
OODr028/23.3WOODSTOWN VORTAC112.8010W
MXEr087/24.5MODENA VORTAC113.2009W
GXUr281/25.4MC GUIRE VORTAC110.6012W
DQOr057/28.8DUPONT VORTAC114.0010W
VCNr353/29.3CEDAR LAKE VOR/DME115.2010W
RBVr259/32.3ROBBINSVILLE VORTAC113.8010W
CYNr299/34.9COYLE VORTAC113.4010W
SBJr218/39.4SOLBERG VOR/DME112.9010W

 
NDB name  Hdg/Dist  Freq  Var  ID
AMBLER151/9.527512WING .. -. --.
RAINBOW010/35.336311WRNB .-. -. -...
LAKEHURST277/37.539611WNEL -. . .-..

Heliport Services

Runway Information

Helipad H1

Dimensions: 46 x 46 ft. / 14 x 14 m
Surface: ROOF/TOP
Runway edge lights: medium intensity
Latitude: 40-00.342333N
Longitude: 075-09.008667W
Elevation: 183.0 ft.
Traffic pattern: leftleft

Heliport Ownership and Management from official FAA records

Ownership: Privately-owned
Owner: TEMPLE UNIVERSITY HOSPITAL
3401 N BROAD ST
PHILADELPHIA, PA 19140
Phone 215-707-4533
Manager: SHANE MCDEVITT
3401 N BROAD ST
PHILADELPHIA, PA 19140
Phone (215) 707-9678

Heliport Operational Statistics

Aircraft based on the field: 1
Multi engine airplanes: 1
    

Additional Remarks

A52-H1 187 FT BLDG 265 FT NW; 35 FT SMOKESTACK 170 DEG SW.

Instrument Procedures

There are no published instrument procedures at PA62.

Some nearby airports with instrument procedures:

KPNE - Northeast Philadelphia Airport (8 nm NE)
KPHL - Philadelphia International Airport (9 nm SW)
KLOM - Wings Field Airport (10 nm NW)
KVAY - South Jersey Regional Airport (14 nm E)
N14 - Flying W Airport (16 nm E)
19N - Camden County Airport (17 nm SE)
N10 - Perkiomen Valley Airport (18 nm NW)
17N - Cross Keys Airport (19 nm S)
N73 - Red Lion Airport (19 nm E)
KDYL - Doylestown Airport (20 nm N)
 
Loc | Ops | Rwys | IFR | FBO | Links
Com | Nav | Svcs | Stats | Notes


 
Area around PA62 (Temple University Heliport)
 
Road maps at: MapQuest Bing Google
 
Aerial photo
No photo
 
Sectional chart

 
Airport distance calculator
Flying to Temple University Heliport? Find the distance to fly.

From to PA62

Sunrise and sunset
Times for 16-Nov-2018
 Local
(UTC-5)
 Zulu
(UTC)
Morning civil twilight06:1911:19
Sunrise06:4811:48
Sunset16:4321:43
Evening civil twilight17:1222:12

Current date and time
Zulu (UTC)  16-Nov-2018 08:54:47
Local (UTC-5)  16-Nov-2018 03:54:47
 
METAR
KPNE 
8nm NE 
160811Z AUTO 04016G21KT 4SM BR BKN007 OVC011 04/03 A2950 RMK AO2 P0001 T00440028 $
KPHL 
9nm SW 
160754Z 03017G22KT 3SM -RA BR BKN006 OVC012 03/03 A2949 RMK AO2 DZE38RAB38 SLP986 P0001 T00330033 $
KLOM 
10nm NW 
160835Z AUTO 04007G15KT 4SM OVC006 02/02 A2946 RMK AO1
KVAY 
15nm E 
ASOS 119.325 609-267-1176
160835Z AUTO 36008KT 2 1/2SM RA BR OVC004 04/04 A2943 RMK AO2 PRESFR P0004 T00440044 $
KDYL 
20nm N 
160754Z AUTO 04010G20KT 7SM -RA BKN005 OVC009 02/01 A2952 RMK AO2 RAB02FZRAE02 SLP004 P0009 I1000 T00170006 $
KOQN 
20nm W 
160835Z AUTO 27012G21KT 1 3/4SM +RA OVC006 02/02 A2954 RMK AO2 P0003
TAF
KPNE 
8nm NE 
160532Z 1606/1706 03014G22KT 2SM -RADZ BR BKN006 OVC012 TEMPO 1606/1609 4SM BR SCT006 OVC012 FM160900 36014G22KT 4SM -SHRA BR OVC006 FM161100 32020G30KT P6SM SCT008 BKN035 FM161400 30016G26KT P6SM BKN045 FM161900 28012G22KT P6SM SCT045 FM162300 27008KT P6SM SKC
KPHL 
9nm SW 
160704Z 1607/1712 02014G25KT 4SM -RADZ BR BKN006 OVC012 TEMPO 1607/1609 2SM BR SCT006 OVC012 FM160900 35014G22KT 4SM -SHRA BR OVC006 FM161100 32020G30KT P6SM SCT008 BKN035 FM161400 29016G26KT P6SM BKN045 FM161900 28014G22KT P6SM SCT045 FM162300 27010KT P6SM SKC
NOTAMs
Click for the latest NOTAMs
NOTAMs are issued by the DoD/FAA and will open in a separate window not controlled by AirNav.

 

 
 

Would you like to see your business listed on this page?

 If your business provides an interesting product or service to pilots, flight crews, aircraft, or users of the Temple University Heliport, you should consider listing it here.  To start the listing process, click on the button below
 
Add a business
 

Other Pages about Temple University Heliport

Update a link
 
Copyright © AirNav, LLC. All rights reserved. Privacy Policy  Contact